sensor_id;sensor_type;location;lat;lon;timestamp;P1;durP1;ratioP1;P2;durP2;ratioP2
24547;SDS011;12713;51.624;4.924;2022-07-29T00:01:06;4.95;;;2.03;;
24547;SDS011;12713;51.624;4.924;2022-07-29T00:03:32;5.55;;;2.28;;
24547;SDS011;12713;51.624;4.924;2022-07-29T00:05:58;6.43;;;2.70;;
24547;SDS011;12713;51.624;4.924;2022-07-29T00:08:26;5.97;;;2.10;;
24547;SDS011;12713;51.624;4.924;2022-07-29T00:10:52;4.88;;;2.20;;
24547;SDS011;12713;51.624;4.924;2022-07-29T00:13:18;4.05;;;2.20;;
24547;SDS011;12713;51.624;4.924;2022-07-29T00:15:45;7.40;;;2.42;;
24547;SDS011;12713;51.624;4.924;2022-07-29T00:18:14;4.25;;;2.28;;
24547;SDS011;12713;51.624;4.924;2022-07-29T00:20:40;5.05;;;2.42;;
24547;SDS011;12713;51.624;4.924;2022-07-29T00:23:08;3.85;;;2.20;;
24547;SDS011;12713;51.624;4.924;2022-07-29T00:25:36;2.75;;;1.92;;
24547;SDS011;12713;51.624;4.924;2022-07-29T00:28:02;6.22;;;2.10;;
24547;SDS011;12713;51.624;4.924;2022-07-29T00:30:28;4.95;;;2.22;;
24547;SDS011;12713;51.624;4.924;2022-07-29T00:32:55;4.40;;;2.30;;
24547;SDS011;12713;51.624;4.924;2022-07-29T00:35:21;3.78;;;2.42;;
24547;SDS011;12713;51.624;4.924;2022-07-29T00:38:05;3.35;;;2.20;;
24547;SDS011;12713;51.624;4.924;2022-07-29T00:40:31;5.07;;;2.13;;
24547;SDS011;12713;51.624;4.924;2022-07-29T00:42:57;3.25;;;1.85;;
24547;SDS011;12713;51.624;4.924;2022-07-29T00:45:23;4.47;;;2.00;;
24547;SDS011;12713;51.624;4.924;2022-07-29T00:47:49;6.20;;;2.20;;
24547;SDS011;12713;51.624;4.924;2022-07-29T00:50:15;7.00;;;2.67;;
24547;SDS011;12713;51.624;4.924;2022-07-29T00:52:42;3.72;;;2.35;;
24547;SDS011;12713;51.624;4.924;2022-07-29T00:55:09;5.63;;;2.35;;
24547;SDS011;12713;51.624;4.924;2022-07-29T00:57:35;3.95;;;2.03;;
24547;SDS011;12713;51.624;4.924;2022-07-29T01:00:06;4.60;;;2.22;;
24547;SDS011;12713;51.624;4.924;2022-07-29T01:02:32;3.88;;;2.13;;
24547;SDS011;12713;51.624;4.924;2022-07-29T01:05:01;4.63;;;2.00;;
24547;SDS011;12713;51.624;4.924;2022-07-29T01:07:27;4.38;;;2.08;;
24547;SDS011;12713;51.624;4.924;2022-07-29T01:09:54;3.40;;;1.88;;
24547;SDS011;12713;51.624;4.924;2022-07-29T01:12:27;3.22;;;2.03;;
24547;SDS011;12713;51.624;4.924;2022-07-29T01:14:54;5.32;;;1.85;;
24547;SDS011;12713;51.624;4.924;2022-07-29T01:17:22;2.13;;;1.70;;
24547;SDS011;12713;51.624;4.924;2022-07-29T01:19:58;4.78;;;1.73;;
24547;SDS011;12713;51.624;4.924;2022-07-29T01:27:45;4.82;;;1.95;;
24547;SDS011;12713;51.624;4.924;2022-07-29T01:30:13;2.95;;;1.88;;
24547;SDS011;12713;51.624;4.924;2022-07-29T01:32:39;3.47;;;2.13;;
24547;SDS011;12713;51.624;4.924;2022-07-29T01:35:20;5.90;;;2.40;;
24547;SDS011;12713;51.624;4.924;2022-07-29T01:37:48;3.55;;;2.15;;
24547;SDS011;12713;51.624;4.924;2022-07-29T01:40:19;4.93;;;2.55;;
24547;SDS011;12713;51.624;4.924;2022-07-29T01:42:48;4.65;;;2.60;;
24547;SDS011;12713;51.624;4.924;2022-07-29T01:50:28;3.03;;;2.00;;
24547;SDS011;12713;51.624;4.924;2022-07-29T01:52:56;3.60;;;2.50;;
24547;SDS011;12713;51.624;4.924;2022-07-29T01:55:28;3.30;;;2.70;;
24547;SDS011;12713;51.624;4.924;2022-07-29T01:57:56;4.82;;;2.15;;
24547;SDS011;12713;51.624;4.924;2022-07-29T02:00:22;4.45;;;2.78;;
24547;SDS011;12713;51.624;4.924;2022-07-29T02:02:48;3.78;;;2.60;;
24547;SDS011;12713;51.624;4.924;2022-07-29T02:05:15;4.45;;;2.28;;
24547;SDS011;12713;51.624;4.924;2022-07-29T02:07:46;4.70;;;2.20;;
24547;SDS011;12713;51.624;4.924;2022-07-29T02:10:17;4.90;;;2.50;;
24547;SDS011;12713;51.624;4.924;2022-07-29T02:12:44;2.85;;;2.33;;
24547;SDS011;12713;51.624;4.924;2022-07-29T02:15:10;3.55;;;2.10;;
24547;SDS011;12713;51.624;4.924;2022-07-29T02:17:39;3.65;;;2.40;;
24547;SDS011;12713;51.624;4.924;2022-07-29T02:20:06;2.92;;;2.33;;
24547;SDS011;12713;51.624;4.924;2022-07-29T02:22:37;4.50;;;2.63;;
24547;SDS011;12713;51.624;4.924;2022-07-29T02:25:04;6.70;;;2.70;;
24547;SDS011;12713;51.624;4.924;2022-07-29T02:27:31;5.63;;;2.20;;
24547;SDS011;12713;51.624;4.924;2022-07-29T02:29:59;5.47;;;2.30;;
24547;SDS011;12713;51.624;4.924;2022-07-29T02:32:26;3.45;;;2.45;;
24547;SDS011;12713;51.624;4.924;2022-07-29T02:34:53;5.03;;;3.22;;
24547;SDS011;12713;51.624;4.924;2022-07-29T02:37:19;6.32;;;3.55;;
24547;SDS011;12713;51.624;4.924;2022-07-29T02:39:46;3.53;;;2.35;;
24547;SDS011;12713;51.624;4.924;2022-07-29T02:42:15;3.80;;;2.63;;
24547;SDS011;12713;51.624;4.924;2022-07-29T02:44:41;4.47;;;3.03;;
24547;SDS011;12713;51.624;4.924;2022-07-29T02:47:24;6.72;;;2.65;;
24547;SDS011;12713;51.624;4.924;2022-07-29T02:52:26;5.45;;;2.40;;
24547;SDS011;12713;51.624;4.924;2022-07-29T02:54:56;7.18;;;2.78;;
24547;SDS011;12713;51.624;4.924;2022-07-29T02:59:51;3.50;;;2.47;;
24547;SDS011;12713;51.624;4.924;2022-07-29T03:02:21;3.70;;;2.35;;
24547;SDS011;12713;51.624;4.924;2022-07-29T03:04:47;4.75;;;2.30;;
24547;SDS011;12713;51.624;4.924;2022-07-29T03:07:18;5.05;;;2.67;;
24547;SDS011;12713;51.624;4.924;2022-07-29T03:09:45;7.18;;;2.58;;
24547;SDS011;12713;51.624;4.924;2022-07-29T03:12:11;4.88;;;2.35;;
24547;SDS011;12713;51.624;4.924;2022-07-29T03:14:37;11.68;;;2.60;;
24547;SDS011;12713;51.624;4.924;2022-07-29T03:17:04;4.22;;;2.90;;
24547;SDS011;12713;51.624;4.924;2022-07-29T03:19:30;5.43;;;2.83;;
24547;SDS011;12713;51.624;4.924;2022-07-29T03:21:57;2.90;;;2.20;;
24547;SDS011;12713;51.624;4.924;2022-07-29T03:24:35;4.40;;;2.40;;
24547;SDS011;12713;51.624;4.924;2022-07-29T03:27:02;4.95;;;2.90;;
24547;SDS011;12713;51.624;4.924;2022-07-29T03:29:28;6.30;;;2.30;;
24547;SDS011;12713;51.624;4.924;2022-07-29T03:31:54;5.22;;;2.40;;
24547;SDS011;12713;51.624;4.924;2022-07-29T03:34:20;2.63;;;2.40;;
24547;SDS011;12713;51.624;4.924;2022-07-29T03:36:47;5.95;;;2.90;;
24547;SDS011;12713;51.624;4.924;2022-07-29T03:39:15;7.78;;;3.00;;
24547;SDS011;12713;51.624;4.924;2022-07-29T03:41:42;5.93;;;2.25;;
24547;SDS011;12713;51.624;4.924;2022-07-29T03:44:10;5.05;;;2.63;;
24547;SDS011;12713;51.624;4.924;2022-07-29T03:46:36;8.05;;;3.10;;
24547;SDS011;12713;51.624;4.924;2022-07-29T03:49:03;5.22;;;3.10;;
24547;SDS011;12713;51.624;4.924;2022-07-29T03:51:29;4.28;;;2.28;;
24547;SDS011;12713;51.624;4.924;2022-07-29T03:53:56;6.93;;;2.55;;
24547;SDS011;12713;51.624;4.924;2022-07-29T03:56:22;7.53;;;2.50;;
24547;SDS011;12713;51.624;4.924;2022-07-29T03:58:52;3.88;;;2.63;;
24547;SDS011;12713;51.624;4.924;2022-07-29T04:01:19;5.03;;;3.00;;
24547;SDS011;12713;51.624;4.924;2022-07-29T04:03:45;3.80;;;2.50;;
24547;SDS011;12713;51.624;4.924;2022-07-29T04:06:12;4.40;;;2.30;;
24547;SDS011;12713;51.624;4.924;2022-07-29T04:08:38;5.63;;;2.90;;
24547;SDS011;12713;51.624;4.924;2022-07-29T04:11:07;4.35;;;2.70;;
24547;SDS011;12713;51.624;4.924;2022-07-29T04:13:33;4.32;;;2.70;;
24547;SDS011;12713;51.624;4.924;2022-07-29T04:15:59;4.35;;;2.60;;
24547;SDS011;12713;51.624;4.924;2022-07-29T04:18:25;3.13;;;2.58;;
24547;SDS011;12713;51.624;4.924;2022-07-29T04:20:51;4.38;;;2.78;;
24547;SDS011;12713;51.624;4.924;2022-07-29T04:23:17;4.70;;;2.45;;
24547;SDS011;12713;51.624;4.924;2022-07-29T04:25:51;4.57;;;2.83;;
24547;SDS011;12713;51.624;4.924;2022-07-29T04:28:17;4.45;;;2.67;;
24547;SDS011;12713;51.624;4.924;2022-07-29T04:30:43;5.00;;;2.92;;
24547;SDS011;12713;51.624;4.924;2022-07-29T04:33:11;4.63;;;2.25;;
24547;SDS011;12713;51.624;4.924;2022-07-29T04:35:37;4.47;;;2.42;;
24547;SDS011;12713;51.624;4.924;2022-07-29T04:38:04;7.07;;;2.47;;
24547;SDS011;12713;51.624;4.924;2022-07-29T04:40:30;4.53;;;2.22;;
24547;SDS011;12713;51.624;4.924;2022-07-29T04:42:58;3.97;;;2.75;;
24547;SDS011;12713;51.624;4.924;2022-07-29T04:45:24;5.43;;;2.85;;
24547;SDS011;12713;51.624;4.924;2022-07-29T04:47:50;3.28;;;2.60;;
24547;SDS011;12713;51.624;4.924;2022-07-29T04:50:16;5.45;;;2.53;;
24547;SDS011;12713;51.624;4.924;2022-07-29T04:52:42;4.45;;;3.08;;
24547;SDS011;12713;51.624;4.924;2022-07-29T04:55:08;4.88;;;2.40;;
24547;SDS011;12713;51.624;4.924;2022-07-29T04:57:34;8.48;;;2.38;;
24547;SDS011;12713;51.624;4.924;2022-07-29T05:00:00;5.22;;;2.40;;
24547;SDS011;12713;51.624;4.924;2022-07-29T05:02:26;8.38;;;2.88;;
24547;SDS011;12713;51.624;4.924;2022-07-29T05:05:07;5.68;;;2.88;;
24547;SDS011;12713;51.624;4.924;2022-07-29T05:07:33;2.38;;;1.92;;
24547;SDS011;12713;51.624;4.924;2022-07-29T05:10:00;3.08;;;2.53;;
24547;SDS011;12713;51.624;4.924;2022-07-29T05:12:26;6.93;;;2.42;;
24547;SDS011;12713;51.624;4.924;2022-07-29T05:14:54;4.20;;;2.38;;
24547;SDS011;12713;51.624;4.924;2022-07-29T05:17:20;4.03;;;2.70;;
24547;SDS011;12713;51.624;4.924;2022-07-29T05:19:46;5.28;;;2.28;;
24547;SDS011;12713;51.624;4.924;2022-07-29T05:22:15;11.63;;;3.00;;
24547;SDS011;12713;51.624;4.924;2022-07-29T05:24:41;5.15;;;2.42;;
24547;SDS011;12713;51.624;4.924;2022-07-29T05:27:07;4.65;;;2.75;;
24547;SDS011;12713;51.624;4.924;2022-07-29T05:29:34;4.70;;;2.75;;
24547;SDS011;12713;51.624;4.924;2022-07-29T05:32:00;3.72;;;2.15;;
24547;SDS011;12713;51.624;4.924;2022-07-29T05:34:26;7.93;;;3.45;;
24547;SDS011;12713;51.624;4.924;2022-07-29T05:36:52;5.38;;;3.20;;
24547;SDS011;12713;51.624;4.924;2022-07-29T05:39:21;3.70;;;2.55;;
24547;SDS011;12713;51.624;4.924;2022-07-29T05:41:47;5.55;;;2.78;;
24547;SDS011;12713;51.624;4.924;2022-07-29T05:44:14;6.03;;;2.45;;
24547;SDS011;12713;51.624;4.924;2022-07-29T05:46:40;6.88;;;2.78;;
24547;SDS011;12713;51.624;4.924;2022-07-29T05:49:08;4.63;;;3.05;;
24547;SDS011;12713;51.624;4.924;2022-07-29T05:51:34;5.07;;;2.85;;
24547;SDS011;12713;51.624;4.924;2022-07-29T05:54:00;4.55;;;2.65;;
24547;SDS011;12713;51.624;4.924;2022-07-29T05:56:26;5.45;;;3.20;;
24547;SDS011;12713;51.624;4.924;2022-07-29T05:58:53;9.15;;;3.22;;
24547;SDS011;12713;51.624;4.924;2022-07-29T06:01:19;5.95;;;3.17;;
24547;SDS011;12713;51.624;4.924;2022-07-29T06:03:45;5.85;;;3.17;;
24547;SDS011;12713;51.624;4.924;2022-07-29T06:06:11;4.90;;;3.10;;
24547;SDS011;12713;51.624;4.924;2022-07-29T06:08:38;4.80;;;2.70;;
24547;SDS011;12713;51.624;4.924;2022-07-29T06:11:05;4.63;;;3.20;;
24547;SDS011;12713;51.624;4.924;2022-07-29T06:13:32;8.85;;;3.75;;
24547;SDS011;12713;51.624;4.924;2022-07-29T06:15:58;5.85;;;3.30;;
24547;SDS011;12713;51.624;4.924;2022-07-29T06:18:26;4.90;;;2.92;;
24547;SDS011;12713;51.624;4.924;2022-07-29T06:20:53;6.68;;;3.00;;
24547;SDS011;12713;51.624;4.924;2022-07-29T06:23:19;7.32;;;3.42;;
24547;SDS011;12713;51.624;4.924;2022-07-29T06:25:46;5.63;;;2.80;;
24547;SDS011;12713;51.624;4.924;2022-07-29T06:28:12;6.70;;;3.20;;
24547;SDS011;12713;51.624;4.924;2022-07-29T06:30:43;8.95;;;3.20;;
24547;SDS011;12713;51.624;4.924;2022-07-29T06:33:09;6.38;;;2.35;;
24547;SDS011;12713;51.624;4.924;2022-07-29T06:35:41;6.88;;;2.85;;
24547;SDS011;12713;51.624;4.924;2022-07-29T06:38:08;5.30;;;2.80;;
24547;SDS011;12713;51.624;4.924;2022-07-29T06:40:46;6.30;;;3.20;;
24547;SDS011;12713;51.624;4.924;2022-07-29T06:46:03;6.32;;;3.40;;
24547;SDS011;12713;51.624;4.924;2022-07-29T06:48:29;6.85;;;3.58;;
24547;SDS011;12713;51.624;4.924;2022-07-29T06:50:55;4.95;;;2.92;;
24547;SDS011;12713;51.624;4.924;2022-07-29T06:53:21;4.97;;;2.97;;
24547;SDS011;12713;51.624;4.924;2022-07-29T06:55:50;7.75;;;4.53;;
24547;SDS011;12713;51.624;4.924;2022-07-29T06:58:16;4.80;;;2.75;;
24547;SDS011;12713;51.624;4.924;2022-07-29T07:00:45;5.82;;;3.55;;
24547;SDS011;12713;51.624;4.924;2022-07-29T07:03:11;8.00;;;3.72;;
24547;SDS011;12713;51.624;4.924;2022-07-29T07:05:40;5.03;;;3.80;;
24547;SDS011;12713;51.624;4.924;2022-07-29T07:11:11;8.20;;;3.67;;
24547;SDS011;12713;51.624;4.924;2022-07-29T07:16:43;10.27;;;4.30;;
24547;SDS011;12713;51.624;4.924;2022-07-29T07:19:09;4.68;;;3.33;;
24547;SDS011;12713;51.624;4.924;2022-07-29T07:21:35;7.60;;;4.65;;
24547;SDS011;12713;51.624;4.924;2022-07-29T07:24:01;9.05;;;3.83;;
24547;SDS011;12713;51.624;4.924;2022-07-29T07:26:28;5.32;;;3.97;;
24547;SDS011;12713;51.624;4.924;2022-07-29T07:28:54;5.68;;;3.08;;
24547;SDS011;12713;51.624;4.924;2022-07-29T07:31:20;5.82;;;3.50;;
24547;SDS011;12713;51.624;4.924;2022-07-29T07:33:46;6.43;;;3.20;;
24547;SDS011;12713;51.624;4.924;2022-07-29T07:36:12;5.95;;;2.55;;
24547;SDS011;12713;51.624;4.924;2022-07-29T07:38:38;5.82;;;3.15;;
24547;SDS011;12713;51.624;4.924;2022-07-29T07:41:04;8.07;;;3.78;;
24547;SDS011;12713;51.624;4.924;2022-07-29T07:43:30;5.78;;;2.97;;
24547;SDS011;12713;51.624;4.924;2022-07-29T07:45:57;6.30;;;3.38;;
24547;SDS011;12713;51.624;4.924;2022-07-29T07:48:23;5.72;;;3.92;;
24547;SDS011;12713;51.624;4.924;2022-07-29T07:50:49;6.43;;;3.83;;
24547;SDS011;12713;51.624;4.924;2022-07-29T07:53:15;6.30;;;3.50;;
24547;SDS011;12713;51.624;4.924;2022-07-29T07:55:41;6.75;;;4.03;;
24547;SDS011;12713;51.624;4.924;2022-07-29T07:58:41;4.93;;;3.20;;
24547;SDS011;12713;51.624;4.924;2022-07-29T08:01:09;4.65;;;3.20;;
24547;SDS011;12713;51.624;4.924;2022-07-29T08:03:35;6.20;;;3.30;;
24547;SDS011;12713;51.624;4.924;2022-07-29T08:06:02;6.82;;;4.18;;
24547;SDS011;12713;51.624;4.924;2022-07-29T08:08:28;8.23;;;4.00;;
24547;SDS011;12713;51.624;4.924;2022-07-29T08:10:54;7.10;;;4.40;;
24547;SDS011;12713;51.624;4.924;2022-07-29T08:13:21;7.70;;;4.10;;
24547;SDS011;12713;51.624;4.924;2022-07-29T08:15:48;3.92;;;3.00;;
24547;SDS011;12713;51.624;4.924;2022-07-29T08:18:22;8.43;;;3.92;;
24547;SDS011;12713;51.624;4.924;2022-07-29T08:20:49;8.52;;;3.33;;
24547;SDS011;12713;51.624;4.924;2022-07-29T08:23:15;6.72;;;3.67;;
24547;SDS011;12713;51.624;4.924;2022-07-29T08:25:44;5.22;;;3.55;;
24547;SDS011;12713;51.624;4.924;2022-07-29T08:28:16;6.60;;;3.70;;
24547;SDS011;12713;51.624;4.924;2022-07-29T08:30:42;5.57;;;3.90;;
24547;SDS011;12713;51.624;4.924;2022-07-29T08:33:11;6.50;;;4.25;;
24547;SDS011;12713;51.624;4.924;2022-07-29T08:35:40;5.07;;;3.58;;
24547;SDS011;12713;51.624;4.924;2022-07-29T08:38:17;9.57;;;3.85;;
24547;SDS011;12713;51.624;4.924;2022-07-29T08:40:51;9.25;;;3.80;;
24547;SDS011;12713;51.624;4.924;2022-07-29T08:43:17;5.43;;;4.20;;
24547;SDS011;12713;51.624;4.924;2022-07-29T08:45:55;7.43;;;4.20;;
24547;SDS011;12713;51.624;4.924;2022-07-29T08:48:22;5.75;;;4.15;;
24547;SDS011;12713;51.624;4.924;2022-07-29T08:50:54;5.82;;;3.67;;
24547;SDS011;12713;51.624;4.924;2022-07-29T08:53:20;6.97;;;3.30;;
24547;SDS011;12713;51.624;4.924;2022-07-29T08:55:53;6.03;;;3.22;;
24547;SDS011;12713;51.624;4.924;2022-07-29T08:58:19;14.15;;;3.63;;
24547;SDS011;12713;51.624;4.924;2022-07-29T09:00:50;5.40;;;3.50;;
24547;SDS011;12713;51.624;4.924;2022-07-29T09:03:18;9.38;;;3.75;;
24547;SDS011;12713;51.624;4.924;2022-07-29T09:05:48;5.25;;;3.30;;
24547;SDS011;12713;51.624;4.924;2022-07-29T09:08:17;5.00;;;3.25;;
24547;SDS011;12713;51.624;4.924;2022-07-29T09:10:43;8.88;;;3.40;;
24547;SDS011;12713;51.624;4.924;2022-07-29T09:13:09;6.10;;;3.13;;
24547;SDS011;12713;51.624;4.924;2022-07-29T09:15:36;5.43;;;3.08;;
24547;SDS011;12713;51.624;4.924;2022-07-29T09:18:05;5.18;;;2.78;;
24547;SDS011;12713;51.624;4.924;2022-07-29T09:20:31;4.18;;;3.03;;
24547;SDS011;12713;51.624;4.924;2022-07-29T09:23:15;7.97;;;3.92;;
24547;SDS011;12713;51.624;4.924;2022-07-29T09:25:41;8.13;;;3.97;;
24547;SDS011;12713;51.624;4.924;2022-07-29T09:28:12;7.45;;;2.83;;
24547;SDS011;12713;51.624;4.924;2022-07-29T09:33:17;7.60;;;2.85;;
24547;SDS011;12713;51.624;4.924;2022-07-29T09:35:58;6.22;;;3.60;;
24547;SDS011;12713;51.624;4.924;2022-07-29T09:38:24;8.50;;;3.22;;
24547;SDS011;12713;51.624;4.924;2022-07-29T09:41:00;7.70;;;2.50;;
24547;SDS011;12713;51.624;4.924;2022-07-29T09:46:15;5.47;;;2.58;;
24547;SDS011;12713;51.624;4.924;2022-07-29T09:48:41;8.68;;;3.00;;
24547;SDS011;12713;51.624;4.924;2022-07-29T09:51:20;6.47;;;2.85;;
24547;SDS011;12713;51.624;4.924;2022-07-29T09:53:46;3.90;;;2.50;;
24547;SDS011;12713;51.624;4.924;2022-07-29T09:56:12;7.20;;;2.70;;
24547;SDS011;12713;51.624;4.924;2022-07-29T09:58:39;5.82;;;2.78;;
24547;SDS011;12713;51.624;4.924;2022-07-29T10:01:05;5.43;;;3.17;;
24547;SDS011;12713;51.624;4.924;2022-07-29T10:03:49;5.75;;;2.08;;
24547;SDS011;12713;51.624;4.924;2022-07-29T10:06:16;3.30;;;2.28;;
24547;SDS011;12713;51.624;4.924;2022-07-29T10:08:42;8.45;;;3.08;;
24547;SDS011;12713;51.624;4.924;2022-07-29T10:11:12;3.90;;;1.90;;
24547;SDS011;12713;51.624;4.924;2022-07-29T10:13:39;6.13;;;2.65;;
24547;SDS011;12713;51.624;4.924;2022-07-29T10:16:08;8.23;;;2.13;;
24547;SDS011;12713;51.624;4.924;2022-07-29T10:18:35;7.40;;;2.10;;
24547;SDS011;12713;51.624;4.924;2022-07-29T10:21:03;8.73;;;2.63;;
24547;SDS011;12713;51.624;4.924;2022-07-29T10:23:29;6.20;;;2.92;;
24547;SDS011;12713;51.624;4.924;2022-07-29T10:25:56;5.32;;;2.45;;
24547;SDS011;12713;51.624;4.924;2022-07-29T10:28:22;3.58;;;2.00;;
24547;SDS011;12713;51.624;4.924;2022-07-29T10:30:52;3.63;;;2.70;;
24547;SDS011;12713;51.624;4.924;2022-07-29T10:43:48;8.63;;;2.70;;
24547;SDS011;12713;51.624;4.924;2022-07-29T10:46:14;4.78;;;2.08;;
24547;SDS011;12713;51.624;4.924;2022-07-29T10:51:25;6.25;;;3.03;;
24547;SDS011;12713;51.624;4.924;2022-07-29T10:54:11;6.47;;;2.20;;
24547;SDS011;12713;51.624;4.924;2022-07-29T10:56:37;4.65;;;1.73;;
24547;SDS011;12713;51.624;4.924;2022-07-29T11:01:47;4.60;;;1.50;;
24547;SDS011;12713;51.624;4.924;2022-07-29T11:04:14;5.82;;;2.35;;
24547;SDS011;12713;51.624;4.924;2022-07-29T11:09:28;5.72;;;2.03;;
24547;SDS011;12713;51.624;4.924;2022-07-29T11:11:56;3.47;;;2.00;;
24547;SDS011;12713;51.624;4.924;2022-07-29T11:22:57;4.50;;;1.83;;
24547;SDS011;12713;51.624;4.924;2022-07-29T11:25:26;4.40;;;1.83;;
24547;SDS011;12713;51.624;4.924;2022-07-29T11:28:07;4.82;;;1.95;;
24547;SDS011;12713;51.624;4.924;2022-07-29T11:30:47;5.75;;;1.90;;
24547;SDS011;12713;51.624;4.924;2022-07-29T11:33:32;4.35;;;2.08;;
24547;SDS011;12713;51.624;4.924;2022-07-29T11:36:10;6.97;;;2.20;;
24547;SDS011;12713;51.624;4.924;2022-07-29T11:38:40;4.20;;;1.90;;
24547;SDS011;12713;51.624;4.924;2022-07-29T11:41:19;3.97;;;1.65;;
24547;SDS011;12713;51.624;4.924;2022-07-29T11:43:49;4.15;;;1.50;;
24547;SDS011;12713;51.624;4.924;2022-07-29T11:49:02;9.05;;;2.35;;
24547;SDS011;12713;51.624;4.924;2022-07-29T11:51:28;8.02;;;2.72;;
24547;SDS011;12713;51.624;4.924;2022-07-29T11:53:54;9.30;;;2.55;;
24547;SDS011;12713;51.624;4.924;2022-07-29T11:56:21;4.90;;;1.80;;
24547;SDS011;12713;51.624;4.924;2022-07-29T11:58:49;11.35;;;2.38;;
24547;SDS011;12713;51.624;4.924;2022-07-29T12:01:16;6.20;;;2.05;;
24547;SDS011;12713;51.624;4.924;2022-07-29T12:03:43;8.52;;;2.35;;
24547;SDS011;12713;51.624;4.924;2022-07-29T12:06:14;6.13;;;1.90;;
24547;SDS011;12713;51.624;4.924;2022-07-29T12:08:41;6.45;;;1.88;;
24547;SDS011;12713;51.624;4.924;2022-07-29T12:11:14;8.05;;;1.90;;
24547;SDS011;12713;51.624;4.924;2022-07-29T12:13:41;3.05;;;1.75;;
24547;SDS011;12713;51.624;4.924;2022-07-29T12:16:07;8.23;;;1.95;;
24547;SDS011;12713;51.624;4.924;2022-07-29T12:18:33;10.25;;;2.42;;
24547;SDS011;12713;51.624;4.924;2022-07-29T12:21:02;3.45;;;1.70;;
24547;SDS011;12713;51.624;4.924;2022-07-29T12:23:28;6.85;;;2.60;;
24547;SDS011;12713;51.624;4.924;2022-07-29T12:25:55;5.75;;;1.75;;
24547;SDS011;12713;51.624;4.924;2022-07-29T12:28:21;6.53;;;1.98;;
24547;SDS011;12713;51.624;4.924;2022-07-29T12:30:48;7.53;;;1.88;;
24547;SDS011;12713;51.624;4.924;2022-07-29T12:33:19;10.40;;;1.92;;
24547;SDS011;12713;51.624;4.924;2022-07-29T12:35:53;5.07;;;1.60;;
24547;SDS011;12713;51.624;4.924;2022-07-29T12:38:19;4.18;;;1.60;;
24547;SDS011;12713;51.624;4.924;2022-07-29T12:40:46;6.28;;;1.77;;
24547;SDS011;12713;51.624;4.924;2022-07-29T12:43:15;5.65;;;1.80;;
24547;SDS011;12713;51.624;4.924;2022-07-29T12:45:48;7.10;;;2.30;;
24547;SDS011;12713;51.624;4.924;2022-07-29T12:48:15;7.07;;;2.00;;
24547;SDS011;12713;51.624;4.924;2022-07-29T12:50:58;6.53;;;1.92;;
24547;SDS011;12713;51.624;4.924;2022-07-29T12:53:27;7.18;;;1.70;;
24547;SDS011;12713;51.624;4.924;2022-07-29T12:55:54;5.63;;;1.73;;
24547;SDS011;12713;51.624;4.924;2022-07-29T13:01:26;7.18;;;2.35;;
24547;SDS011;12713;51.624;4.924;2022-07-29T13:06:29;7.68;;;2.00;;
24547;SDS011;12713;51.624;4.924;2022-07-29T13:11:30;3.55;;;1.80;;
24547;SDS011;12713;51.624;4.924;2022-07-29T13:13:56;7.05;;;2.13;;
24547;SDS011;12713;51.624;4.924;2022-07-29T13:16:23;7.38;;;1.70;;
24547;SDS011;12713;51.624;4.924;2022-07-29T13:18:54;6.03;;;1.77;;
24547;SDS011;12713;51.624;4.924;2022-07-29T13:21:28;7.15;;;1.70;;
24547;SDS011;12713;51.624;4.924;2022-07-29T13:23:54;5.00;;;1.80;;
24547;SDS011;12713;51.624;4.924;2022-07-29T13:26:23;3.17;;;1.52;;
24547;SDS011;12713;51.624;4.924;2022-07-29T13:28:49;3.55;;;1.77;;
24547;SDS011;12713;51.624;4.924;2022-07-29T13:31:16;3.92;;;1.52;;
24547;SDS011;12713;51.624;4.924;2022-07-29T13:33:42;3.78;;;1.70;;
24547;SDS011;12713;51.624;4.924;2022-07-29T13:36:08;5.45;;;1.95;;
24547;SDS011;12713;51.624;4.924;2022-07-29T13:38:36;4.00;;;2.00;;
24547;SDS011;12713;51.624;4.924;2022-07-29T13:41:02;5.47;;;2.28;;
24547;SDS011;12713;51.624;4.924;2022-07-29T13:43:31;6.18;;;2.30;;
24547;SDS011;12713;51.624;4.924;2022-07-29T13:45:57;6.75;;;2.00;;
24547;SDS011;12713;51.624;4.924;2022-07-29T13:48:23;5.35;;;1.77;;
24547;SDS011;12713;51.624;4.924;2022-07-29T13:50:49;6.35;;;1.60;;
24547;SDS011;12713;51.624;4.924;2022-07-29T13:53:15;5.50;;;2.10;;
24547;SDS011;12713;51.624;4.924;2022-07-29T13:55:42;5.10;;;1.92;;
24547;SDS011;12713;51.624;4.924;2022-07-29T13:58:20;5.75;;;2.25;;
24547;SDS011;12713;51.624;4.924;2022-07-29T14:00:52;7.32;;;2.20;;
24547;SDS011;12713;51.624;4.924;2022-07-29T14:03:21;5.90;;;2.10;;
24547;SDS011;12713;51.624;4.924;2022-07-29T14:05:47;3.28;;;1.70;;
24547;SDS011;12713;51.624;4.924;2022-07-29T14:08:16;6.57;;;1.83;;
24547;SDS011;12713;51.624;4.924;2022-07-29T14:10:42;6.80;;;2.13;;
24547;SDS011;12713;51.624;4.924;2022-07-29T14:13:08;4.30;;;1.90;;
24547;SDS011;12713;51.624;4.924;2022-07-29T14:15:34;4.78;;;2.05;;
24547;SDS011;12713;51.624;4.924;2022-07-29T14:18:00;7.50;;;2.20;;
24547;SDS011;12713;51.624;4.924;2022-07-29T14:20:27;5.75;;;1.90;;
24547;SDS011;12713;51.624;4.924;2022-07-29T14:22:56;5.30;;;1.83;;
24547;SDS011;12713;51.624;4.924;2022-07-29T14:25:25;5.25;;;2.10;;
24547;SDS011;12713;51.624;4.924;2022-07-29T14:27:51;6.70;;;2.15;;
24547;SDS011;12713;51.624;4.924;2022-07-29T14:30:19;3.95;;;2.00;;
24547;SDS011;12713;51.624;4.924;2022-07-29T14:32:45;6.90;;;1.88;;
24547;SDS011;12713;51.624;4.924;2022-07-29T14:35:15;3.25;;;2.13;;
24547;SDS011;12713;51.624;4.924;2022-07-29T14:37:42;4.50;;;2.08;;
24547;SDS011;12713;51.624;4.924;2022-07-29T14:40:09;6.45;;;1.95;;
24547;SDS011;12713;51.624;4.924;2022-07-29T14:42:38;5.47;;;2.30;;
24547;SDS011;12713;51.624;4.924;2022-07-29T14:45:07;9.48;;;2.30;;
24547;SDS011;12713;51.624;4.924;2022-07-29T14:47:39;6.75;;;2.33;;
24547;SDS011;12713;51.624;4.924;2022-07-29T14:50:11;4.23;;;2.17;;
24547;SDS011;12713;51.624;4.924;2022-07-29T14:52:38;5.78;;;1.98;;
24547;SDS011;12713;51.624;4.924;2022-07-29T14:55:04;3.58;;;2.42;;
24547;SDS011;12713;51.624;4.924;2022-07-29T14:57:31;8.57;;;2.83;;
24547;SDS011;12713;51.624;4.924;2022-07-29T14:59:57;7.43;;;2.20;;
24547;SDS011;12713;51.624;4.924;2022-07-29T15:02:29;7.18;;;2.10;;
24547;SDS011;12713;51.624;4.924;2022-07-29T15:04:55;4.55;;;2.63;;
24547;SDS011;12713;51.624;4.924;2022-07-29T15:07:21;3.83;;;2.00;;
24547;SDS011;12713;51.624;4.924;2022-07-29T15:09:47;4.45;;;2.50;;
24547;SDS011;12713;51.624;4.924;2022-07-29T15:12:13;8.25;;;2.63;;
24547;SDS011;12713;51.624;4.924;2022-07-29T15:14:40;4.60;;;2.35;;
24547;SDS011;12713;51.624;4.924;2022-07-29T15:17:06;5.68;;;2.10;;
24547;SDS011;12713;51.624;4.924;2022-07-29T15:19:32;3.53;;;1.70;;
24547;SDS011;12713;51.624;4.924;2022-07-29T15:21:58;7.78;;;2.40;;
24547;SDS011;12713;51.624;4.924;2022-07-29T15:24:25;6.07;;;2.20;;
24547;SDS011;12713;51.624;4.924;2022-07-29T15:26:51;3.50;;;2.10;;
24547;SDS011;12713;51.624;4.924;2022-07-29T15:29:17;5.97;;;2.70;;
24547;SDS011;12713;51.624;4.924;2022-07-29T15:31:43;9.43;;;3.13;;
24547;SDS011;12713;51.624;4.924;2022-07-29T15:34:09;6.72;;;2.53;;
24547;SDS011;12713;51.624;4.924;2022-07-29T15:36:35;7.00;;;2.90;;
24547;SDS011;12713;51.624;4.924;2022-07-29T15:39:01;7.95;;;3.33;;
24547;SDS011;12713;51.624;4.924;2022-07-29T15:41:27;5.05;;;3.03;;
24547;SDS011;12713;51.624;4.924;2022-07-29T15:43:53;5.53;;;3.20;;
24547;SDS011;12713;51.624;4.924;2022-07-29T15:46:19;6.90;;;2.50;;
24547;SDS011;12713;51.624;4.924;2022-07-29T15:49:05;8.88;;;2.88;;
24547;SDS011;12713;51.624;4.924;2022-07-29T15:51:32;6.32;;;2.20;;
24547;SDS011;12713;51.624;4.924;2022-07-29T15:54:00;9.15;;;2.63;;
24547;SDS011;12713;51.624;4.924;2022-07-29T15:56:27;6.68;;;3.10;;
24547;SDS011;12713;51.624;4.924;2022-07-29T15:58:53;5.25;;;2.80;;
24547;SDS011;12713;51.624;4.924;2022-07-29T16:04:03;7.13;;;3.10;;